Data for 10/24/2015

Time Sea-Level Adjusted Pressure Absolute Pressure Temperature Relative Humidity Dew Point   
(mb) (inHg) (mb) (inHg) (C) (F) (%) (C) (F)
00:05 1021 30.15 850 25.1 3.3 38 55 -4.8 23.3
00:10 1021 30.15 850 25.1 3.2 37.7 55 -5 23
00:15 1021 30.15 850 25.1 2.9 37.2 56 -4.9 23.1
00:20 1021 30.15 850 25.1 2.9 37.2 55 -5.2 22.7
00:25 1021 30.15 850 25.1 2.9 37.2 56 -5.1 22.8
00:30 1021 30.15 850 25.1 3.3 38 53 -5.2 22.6
00:35 1021 30.15 850 25.1 3.4 38.2 52 -5.5 22.1
00:40 1021 30.15 850 25.1 3.4 38.2 52 -5.4 22.3
00:45 1021 30.15 850 25.1 3.2 37.8 55 -5 23.1
00:50 1021 30.15 850 25.1 3.1 37.6 55 -5.1 22.8
00:55 1021 30.15 850 25.1 2.9 37.1 56 -5 23
01:00 1021 30.15 850 25.1 2.8 37 55 -5.4 22.3
01:05 1021 30.15 850 25.1 3.2 37.7 53 -5.4 22.2
01:10 1021 30.15 850 25.1 3.2 37.7 50 -6.4 20.5
01:15 1021 30.15 850 25.1 3.1 37.5 51 -6 21.2
01:20 1021 30.15 850 25.1 2.9 37.1 51 -6.2 20.8
01:25 1021 30.15 850 25.1 2.7 36.8 53 -6 21.1
01:30 1021 30.15 850 25.1 2.3 36.2 55 -5.8 21.6
01:35 1021 30.15 850 25.1 1.9 35.5 56 -5.9 21.4
01:40 1021 30.15 850 25.1 1.6 34.9 58 -5.8 21.5
01:45 1021 30.15 850 25.1 1.3 34.4 60 -5.6 22
01:50 1021 30.15 850 25.1 0.9 33.7 63 -5.4 22.4
01:55 1021 30.15 850 25.1 0.9 33.7 60 -6 21.2
02:00 1021 30.15 850 25.1 1.1 33.9 60 -6 21.3
02:05 1021 30.15 850 25.1 1.2 34.2 59 -5.9 21.5
02:10 1021 30.15 850 25.1 1.3 34.4 59 -5.8 21.5
02:15 1021 30.15 850 25.1 1.6 34.9 56 -6.3 20.7
02:20 1021 30.15 850 25.1 2.1 35.7 55 -6 21.1
02:25 1021 30.15 850 25.1 2.3 36.1 54 -6.1 21
02:30 1021 30.15 850 25.1 2.3 36.1 54 -6.1 21
02:35 1021 30.15 850 25.1 2.3 36.1 55 -5.9 21.3
02:40 1021 30.15 850 25.1 2.2 35.9 54 -6.1 21
02:45 1021 30.15 850 25.1 2.3 36.1 54 -6.1 20.9
02:50 1021 30.15 850 25.1 2.3 36.1 55 -5.9 21.3
02:55 1021 30.15 850 25.1 2.7 36.8 52 -6.3 20.6
03:00 1021 30.15 850 25.1 2.7 36.9 53 -6 21.2
03:05 1021 30.15 850 25.1 2.7 36.8 53 -6.1 21.1
03:10 1021 30.15 850 25.1 2.6 36.7 55 -5.6 21.9
03:15 1021 30.15 850 25.1 2.2 35.9 56 -5.6 21.9
03:20 1021 30.15 850 25.1 2.4 36.3 54 -6.1 21.1
03:25 1021 30.15 850 25.1 2.3 36.2 55 -5.9 21.4
03:30 1021 30.15 850 25.1 2.2 35.9 56 -5.8 21.6
03:35 1021 30.15 850 25.1 2 35.6 57 -5.7 21.8
03:40 1021 30.15 850 25.1 1.8 35.2 57 -5.9 21.3
03:45 1021 30.15 850 25.1 2 35.6 55 -6.1 21
03:50 1021 30.15 850 25.1 2.1 35.7 55 -6.2 20.9
03:55 1021 30.15 850 25.1 1.9 35.3 56 -6 21.2
04:00 1021 30.15 850 25.1 1.7 35.1 58 -5.7 21.7
04:05 1021 30.15 851 25.13 1.6 35 60 -5.4 22.3
04:10 1021 30.15 851 25.13 1.9 35.3 59 -5.4 22.4
04:15 1021 30.15 851 25.13 1.8 35.3 59 -5.4 22.4
04:20 1021 30.15 851 25.13 1.8 35.3 59 -5.3 22.4
04:25 1021 30.15 851 25.13 1.8 35.2 59 -5.4 22.3
04:30 1021 30.15 851 25.13 1.8 35.2 59 -5.4 22.3
04:35 1021 30.15 851 25.13 1.9 35.3 59 -5.3 22.4
04:40 1021 30.15 850 25.1 2 35.6 58 -5.3 22.4
04:45 1021 30.15 850 25.1 2.1 35.8 58 -5.2 22.6
04:50 1021 30.15 850 25.1 1.9 35.4 61 -4.9 23.2
04:55 1021 30.15 850 25.1 1.6 34.8 61 -5.1 22.8
05:00 1021 30.15 850 25.1 1.7 35 61 -5 23
05:05 1021 30.15 850 25.1 1.6 34.8 61 -5.2 22.6
05:10 1021 30.15 850 25.1 1.6 34.9 62 -4.8 23.3
05:15 1021 30.15 850 25.1 1.8 35.2 59 -5.3 22.4
05:20 1021 30.15 850 25.1 2 35.7 62 -4.5 23.8
05:25 1021 30.15 850 25.1 1.5 34.8 63 -4.7 23.6
05:30 1021 30.15 851 25.13 1.5 34.7 64 -4.5 23.9
05:35 1021 30.15 851 25.13 1.3 34.4 66 -4.4 24
05:40 1021 30.15 851 25.13 1.6 35 63 -4.7 23.5
05:45 1022 30.18 851 25.13 1.9 35.5 62 -4.7 23.5
05:50 1022 30.18 851 25.13 2 35.6 62 -4.6 23.7
05:55 1022 30.18 851 25.13 1.9 35.5 63 -4.5 24
06:00 1022 30.18 851 25.13 1.9 35.4 63 -4.5 23.9
06:05 1022 30.18 851 25.13 1.9 35.4 62 -4.7 23.6
06:10 1022 30.18 851 25.13 2.1 35.7 62 -4.5 23.9
06:15 1022 30.18 851 25.13 2.1 35.7 62 -4.4 24
06:20 1022 30.18 851 25.13 2.1 35.8 62 -4.4 24
06:25 1022 30.18 851 25.13 2.1 35.9 62 -4.4 24.1
06:30 1022 30.18 851 25.13 2.1 35.9 63 -4.2 24.4
06:35 1022 30.18 851 25.13 2.2 36 62 -4.4 24.1
06:40 1022 30.18 851 25.13 2.2 35.9 63 -4.1 24.7
06:45 1022 30.18 851 25.13 2.1 35.8 63 -4.3 24.3
06:50 1022 30.18 851 25.13 2.2 36 62 -4.3 24.3
06:55 1022 30.18 851 25.13 2.4 36.4 62 -4.1 24.6
07:00 1022 30.18 851 25.13 2.4 36.4 62 -4.1 24.6
07:05 1022 30.18 851 25.13 2.6 36.6 61 -4.2 24.5
07:10 1022 30.18 851 25.13 2.8 37.1 60 -4.1 24.6
07:15 1022 30.18 851 25.13 2.9 37.2 61 -3.9 24.9
07:20 1022 30.18 851 25.13 2.8 37 62 -3.8 25.1
07:25 1022 30.18 851 25.13 2.7 36.9 63 -3.6 25.4
07:30 1022 30.18 851 25.13 2.7 36.8 63 -3.7 25.3
07:35 1022 30.18 851 25.13 3 37.3 62 -3.5 25.7
07:40 1022 30.18 851 25.13 2.9 37.3 62 -3.6 25.5
07:45 1022 30.18 851 25.13 3 37.4 63 -3.4 25.8
07:50 1022 30.18 851 25.13 3 37.5 62 -3.6 25.5
07:55 1022 30.18 851 25.13 3.3 37.9 60 -3.7 25.4
08:00 1022 30.18 851 25.13 3.3 37.9 61 -3.6 25.6
08:05 1022 30.18 851 25.13 3.2 37.8 61 -3.6 25.6
08:10 1022 30.18 851 25.13 3.3 38 60 -3.8 25.1
08:15 1022 30.18 851 25.13 3.7 38.6 58 -3.9 25
08:20 1022 30.18 851 25.13 4 39.1 59 -3.3 26
08:25 1022 30.18 851 25.13 4 39.2 58 -3.5 25.7
08:30 1022 30.18 851 25.13 4.2 39.5 60 -2.9 26.8
08:35 1022 30.18 851 25.13 4 39.1 59 -3.4 25.9
08:40 1022 30.18 851 25.13 4.2 39.5 60 -2.8 27
08:45 1022 30.18 852 25.16 4.3 39.7 59 -3 26.7
08:50 1022 30.18 852 25.16 4.6 40.2 58 -3 26.7
08:55 1022 30.18 852 25.16 4.9 40.8 57 -3 26.6
09:00 1022 30.18 852 25.16 5.3 41.5 54 -3.2 26.2
09:05 1022 30.18 851 25.13 5.6 42 54 -2.9 26.8
09:10 1022 30.18 851 25.13 5.8 42.4 54 -2.8 27
09:15 1022 30.18 851 25.13 6.1 42.9 53 -2.7 27.1
09:20 1022 30.18 851 25.13 6.2 43.1 52 -2.8 26.9
09:25 1022 30.18 851 25.13 6.3 43.4 53 -2.5 27.5
09:30 1022 30.18 851 25.13 6.6 43.9 52 -2.6 27.3
09:35 1022 30.18 851 25.13 7 44.6 50 -2.6 27.2
09:40 1022 30.18 851 25.13 7.4 45.3 47 -3 26.5
09:45 1022 30.18 851 25.13 7.7 45.8 46 -3.1 26.5
09:50 1022 30.18 851 25.13 7.9 46.3 46 -2.9 26.9
09:55 1022 30.18 851 25.13 8.4 47.2 45 -2.9 26.8
10:00 1022 30.18 851 25.13 9.5 49.1 42 -2.8 26.9
10:05 1022 30.18 851 25.13 9.6 49.3 42 -2.7 27.2
10:10 1022 30.18 851 25.13 9.6 49.3 42 -2.8 27
10:15 1022 30.18 851 25.13 9.9 49.8 42 -2.4 27.7
10:20 1022 30.18 851 25.13 9.8 49.7 42 -2.4 27.7
10:25 1022 30.18 851 25.13 10 49.9 42 -2.3 27.8
10:30 1022 30.18 851 25.13 10 49.9 43 -2 28.4
10:35 1022 30.18 851 25.13 10.3 50.5 40 -2.7 27.2
10:40 1022 30.18 851 25.13 10.4 50.8 41 -2.1 28.3
10:45 1022 30.18 851 25.13 10.3 50.6 40 -2.8 27
10:50 1022 30.18 851 25.13 10.8 51.4 39 -2.6 27.3
10:55 1022 30.18 851 25.13 11.2 52.2 38 -2.7 27.1
11:00 1022 30.18 851 25.13 11.3 52.3 38 -2.6 27.4
11:05 1022 30.18 851 25.13 11.7 53 36 -3 26.6
11:10 1022 30.18 851 25.13 12.2 54 35 -2.8 26.9
11:15 1022 30.18 851 25.13 12.6 54.7 33 -3.1 26.4
11:20 1022 30.18 851 25.13 13 55.4 33 -2.7 27.1
11:25 1022 30.18 851 25.13 12.8 55 34 -2.8 26.9
11:30 1022 30.18 851 25.13 12.9 55.2 33 -2.9 26.8
11:35 1022 30.18 851 25.13 13.2 55.8 32 -3 26.5
11:40 1022 30.18 851 25.13 13.4 56.2 31 -3.1 26.4
11:45 1022 30.18 851 25.13 13 55.3 31 -3.6 25.6
11:50 1022 30.18 851 25.13 12.3 54.2 32 -4 24.7
11:55 1021 30.15 851 25.13 12.4 54.3 32 -3.7 25.4
12:00 1021 30.15 851 25.13 12.5 54.5 32 -3.6 25.4
12:05 1021 30.15 851 25.13 12.6 54.6 31 -4 24.8
12:10 1021 30.15 851 25.13 12.9 55.2 30 -4.2 24.5
12:15 1021 30.15 850 25.1 13.1 55.5 31 -3.8 25.2
12:20 1021 30.15 850 25.1 12.3 54.2 31 -4.2 24.5
12:25 1021 30.15 850 25.1 12.5 54.4 32 -3.7 25.4
12:30 1021 30.15 850 25.1 12 53.6 35 -2.9 26.8
12:35 1021 30.15 850 25.1 11.6 52.8 35 -3.4 25.8
12:40 1021 30.15 850 25.1 11.6 52.9 35 -3.3 26
12:45 1021 30.15 850 25.1 11.6 52.9 35 -3.4 25.8
12:50 1021 30.15 850 25.1 11.3 52.3 36 -3.2 26.3
12:55 1021 30.15 850 25.1 11.1 52 34 -4 24.8
13:00 1021 30.15 850 25.1 11.4 52.5 33 -4.4 24.1
13:05 1021 30.15 850 25.1 11.8 53.2 32 -4.5 24
13:10 1021 30.15 850 25.1 11.8 53.2 33 -4 24.8
13:15 1021 30.15 850 25.1 11.5 52.8 33 -4.1 24.6
13:20 1021 30.15 850 25.1 11.8 53.3 32 -4.2 24.4
13:25 1021 30.15 850 25.1 12 53.6 31 -4.4 24.1
13:30 1021 30.15 850 25.1 12.2 54 32 -3.9 24.9
13:35 1021 30.15 850 25.1 12.3 54.2 32 -3.7 25.4
13:40 1021 30.15 850 25.1 12.3 54.1 32 -3.8 25.1
13:45 1021 30.15 850 25.1 12.2 54 32 -3.9 25
13:50 1021 30.15 850 25.1 12.2 54 30 -4.6 23.6
13:55 1021 30.15 850 25.1 12.2 54 31 -4.4 24
14:00 1021 30.15 850 25.1 12.4 54.2 30 -4.9 23.2
14:05 1021 30.15 850 25.1 12 53.6 31 -4.6 23.6
14:10 1020 30.12 850 25.1 12 53.5 30 -5 23
14:15 1021 30.15 850 25.1 12.2 53.9 30 -5 23
14:20 1021 30.15 850 25.1 12.3 54.1 29 -5 23.1
14:25 1020 30.12 850 25.1 12.5 54.5 31 -4.3 24.3
14:30 1020 30.12 850 25.1 12.3 54.1 30 -4.8 23.3
14:35 1020 30.12 850 25.1 12.2 53.9 30 -4.8 23.4
14:40 1020 30.12 850 25.1 12.3 54.1 31 -4.4 24
14:45 1020 30.12 850 25.1 12.2 54 31 -4.3 24.2
14:50 1020 30.12 850 25.1 12.2 53.9 31 -4.3 24.3
14:55 1020 30.12 850 25.1 12.4 54.3 31 -4.3 24.2
15:00 1020 30.12 850 25.1 12.4 54.3 31 -4.4 24.1
15:05 1020 30.12 849 25.07 12.6 54.7 31 -4.1 24.7
15:10 1020 30.12 849 25.07 12.9 55.2 30 -4.2 24.5
15:15 1020 30.12 849 25.07 13.1 55.5 30 -3.9 25
15:20 1020 30.12 850 25.1 13.1 55.5 31 -3.5 25.7
15:25 1020 30.12 850 25.1 13.1 55.5 31 -3.7 25.4
15:30 1020 30.12 849 25.07 13 55.4 31 -3.9 25
15:35 1020 30.12 849 25.07 13 55.4 32 -3.4 25.9
15:40 1020 30.12 849 25.07 13 55.3 32 -3.4 25.9
15:45 1020 30.12 850 25.1 12.9 55.3 32 -3.3 26.1
15:50 1020 30.12 849 25.07 12.9 55.1 31 -3.9 25
15:55 1020 30.12 849 25.07 12.7 54.8 31 -3.8 25.1
16:00 1020 30.12 849 25.07 12.7 54.8 31 -3.7 25.3
16:05 1020 30.12 849 25.07 12.6 54.7 32 -3.6 25.5
16:10 1020 30.12 849 25.07 12.5 54.6 33 -3.5 25.8
16:15 1020 30.12 849 25.07 12.3 54.2 31 -4.2 24.4
16:20 1020 30.12 849 25.07 12.2 54 31 -4.3 24.3
16:25 1020 30.12 849 25.07 12.2 54 31 -4.2 24.4
16:30 1020 30.12 849 25.07 12.3 54.1 32 -4.1 24.7
16:35 1020 30.12 849 25.07 12.3 54.2 32 -4.1 24.7
16:40 1020 30.12 849 25.07 12.4 54.2 31 -4.1 24.6
16:45 1020 30.12 849 25.07 12.4 54.3 30 -4.6 23.7
16:50 1020 30.12 849 25.07 12.3 54.2 26 -6.7 20
16:55 1020 30.12 850 25.1 12.8 55 27 -5.7 21.8
17:00 1020 30.12 850 25.1 12.7 54.8 28 -5.4 22.3
17:05 1020 30.12 850 25.1 12.7 54.9 26 -6 21.2
17:10 1020 30.12 850 25.1 12.9 55.2 27 -5.6 21.9
17:15 1020 30.12 850 25.1 12.8 55 27 -5.9 21.3
17:20 1020 30.12 850 25.1 12.8 55.1 28 -5.2 22.6
17:25 1020 30.12 850 25.1 12.7 54.8 28 -5.5 22.1
17:30 1020 30.12 850 25.1 13 55.4 21 -8.7 16.3
17:35 1020 30.12 850 25.1 13.5 56.2 20 -9.1 15.6
17:40 1020 30.12 850 25.1 13.6 56.4 21 -8.2 17.2
17:45 1020 30.12 850 25.1 13.4 56.1 23 -7.5 18.5
17:50 1021 30.15 850 25.1 13.1 55.5 25 -6.7 19.9
17:55 1020 30.12 850 25.1 12.7 54.9 25 -6.7 20
18:00 1021 30.15 850 25.1 12.5 54.6 27 -6 21.1
18:05 1021 30.15 850 25.1 12.4 54.3 28 -5.4 22.3
18:10 1021 30.15 850 25.1 12.2 53.9 30 -4.8 23.3
18:15 1021 30.15 850 25.1 11.9 53.5 31 -4.4 24
18:20 1021 30.15 850 25.1 11.8 53.2 33 -4.1 24.7
18:25 1021 30.15 850 25.1 11.6 52.8 34 -3.9 25
18:30 1021 30.15 850 25.1 11.4 52.5 35 -3.6 25.6
18:35 1021 30.15 850 25.1 11.2 52.2 36 -3.3 26.1
18:40 1021 30.15 850 25.1 11 51.9 39 -2.2 28.1
18:45 1021 30.15 850 25.1 10.6 51.1 41 -2.2 28.1
18:50 1021 30.15 850 25.1 10.5 50.9 41 -2.2 28
18:55 1021 30.15 850 25.1 10.5 50.9 40 -2.5 27.5
19:00 1021 30.15 850 25.1 10.6 51 41 -2.2 28.1
19:05 1021 30.15 850 25.1 10.4 50.8 39 -2.9 26.8
19:10 1021 30.15 850 25.1 10.7 51.2 36 -3.6 25.5
19:15 1021 30.15 850 25.1 11 51.7 35 -4 24.8
19:20 1021 30.15 850 25.1 11 51.8 36 -3.5 25.8
19:25 1021 30.15 850 25.1 11 51.7 40 -2.2 28
19:30 1021 30.15 850 25.1 10.4 50.8 40 -2.6 27.4
19:35 1021 30.15 850 25.1 10.2 50.4 39 -3.2 26.3
19:40 1021 30.15 850 25.1 10.3 50.6 40 -2.7 27.1
19:45 1021 30.15 850 25.1 10.1 50.2 39 -3.1 26.3
19:50 1021 30.15 850 25.1 10.3 50.5 35 -4.7 23.6
19:55 1021 30.15 850 25.1 10.5 50.9 41 -2.3 27.8
20:00 1021 30.15 850 25.1 9.7 49.5 42 -2.7 27.2
20:05 1021 30.15 850 25.1 9.9 49.8 40 -3.1 26.4
20:10 1021 30.15 850 25.1 9.8 49.7 43 -2.1 28.3
20:15 1021 30.15 850 25.1 9.4 48.9 40 -3.3 26
20:20 1021 30.15 850 25.1 9.5 49.1 38 -4.1 24.7
20:25 1021 30.15 850 25.1 9.8 49.6 38 -3.7 25.3
20:30 1021 30.15 850 25.1 9.5 49.2 40 -3.4 25.8
20:35 1021 30.15 850 25.1 9.3 48.8 39 -4 24.8
20:40 1021 30.15 850 25.1 9.6 49.2 38 -4 24.9
20:45 1021 30.15 850 25.1 9.3 48.7 40 -3.5 25.7
20:50 1021 30.15 850 25.1 9.2 48.6 39 -3.9 25.1
20:55 1021 30.15 850 25.1 9.2 48.5 39 -3.9 25
21:00 1021 30.15 850 25.1 9.1 48.3 38 -4.5 23.9
21:05 1021 30.15 850 25.1 9.2 48.5 37 -4.7 23.5
21:10 1021 30.15 850 25.1 9.2 48.6 37 -4.6 23.8
21:15 1021 30.15 850 25.1 9.1 48.3 39 -4 24.8
21:20 1021 30.15 850 25.1 8.8 47.8 40 -3.9 24.9
21:25 1020 30.12 850 25.1 8.6 47.5 42 -3.7 25.4
21:30 1021 30.15 850 25.1 8.2 46.7 42 -3.8 25.1
21:35 1021 30.15 850 25.1 8.2 46.7 40 -4.7 23.6
21:40 1021 30.15 850 25.1 8.5 47.3 39 -4.8 23.4
21:45 1021 30.15 850 25.1 8.6 47.5 38 -4.9 23.1
21:50 1021 30.15 850 25.1 8.9 48 38 -4.8 23.3
21:55 1021 30.15 850 25.1 8.8 47.9 39 -4.3 24.2
22:00 1021 30.15 850 25.1 8.6 47.4 39 -4.7 23.5
22:05 1021 30.15 850 25.1 8.6 47.5 40 -4 24.7
22:10 1021 30.15 850 25.1 8.3 46.9 42 -3.9 24.9
22:15 1021 30.15 850 25.1 8.6 47.4 39 -4.6 23.8
22:20 1021 30.15 850 25.1 8.9 48.1 37 -4.9 23.1
22:25 1021 30.15 850 25.1 9.1 48.4 41 -3.5 25.7
22:30 1021 30.15 850 25.1 8.9 47.9 41 -3.7 25.3
22:35 1021 30.15 850 25.1 8.6 47.5 45 -2.6 27.4
22:40 1021 30.15 850 25.1 8 46.5 48 -2.3 27.9
22:45 1021 30.15 850 25.1 7.9 46.2 48 -2.5 27.5
22:50 1021 30.15 850 25.1 8 46.4 48 -2.4 27.8
22:55 1021 30.15 850 25.1 7.7 45.8 50 -2 28.4
23:00 1021 30.15 850 25.1 7.2 45 51 -2.2 28.1
23:05 1021 30.15 850 25.1 7.2 44.9 51 -2.2 28
23:10 1021 30.15 850 25.1 7.2 44.9 50 -2.4 27.7
23:15 1021 30.15 850 25.1 7.3 45.2 49 -2.7 27.2
23:20 1021 30.15 850 25.1 7.6 45.6 50 -2.3 27.9
23:25 1021 30.15 850 25.1 7.5 45.5 50 -2.2 28.1
23:30 1021 30.15 850 25.1 7.4 45.4 50 -2.3 27.9
23:35 1021 30.15 850 25.1 7.5 45.5 47 -3.1 26.4
23:40 1021 30.15 850 25.1 7.9 46.2 50 -2 28.5
23:45 1021 30.15 850 25.1 7.6 45.6 48 -2.8 27
23:50 1021 30.15 850 25.1 7.5 45.4 49 -2.5 27.6
23:55 1021 30.15 850 25.1 7.3 45.1 52 -1.9 28.5
24:00 1021 30.15 850 25.1 7.2 44.9 47 -3.4 25.9